sensor_id;sensor_type;location;lat;lon;timestamp;pressure;altitude;pressure_sealevel;temperature;humidity
33496;BME280;19836;55.812;37.560;2023-05-25T04:23:20;99571.56;;;20.46;72.02
33496;BME280;19836;55.812;37.560;2023-05-25T04:25:53;99566.56;;;20.40;72.15
33496;BME280;19836;55.812;37.560;2023-05-25T04:28:22;99559.28;;;20.41;72.04
33496;BME280;19836;55.812;37.560;2023-05-25T04:31:02;99564.38;;;20.45;71.99
33496;BME280;19836;55.812;37.560;2023-05-25T04:41:01;99565.53;;;20.66;71.97
33496;BME280;19836;55.812;37.560;2023-05-25T04:43:58;99571.81;;;20.79;72.01
33496;BME280;19836;55.812;37.560;2023-05-25T04:46:35;99569.84;;;20.81;71.24
33496;BME280;19836;55.812;37.560;2023-05-25T04:49:05;99570.19;;;20.89;71.15
33496;BME280;19836;55.812;37.560;2023-05-25T04:51:36;99568.63;;;20.98;70.92
33496;BME280;19836;55.812;37.560;2023-05-25T04:54:13;99565.53;;;21.02;70.64
33496;BME280;19836;55.812;37.560;2023-05-25T04:56:44;99571.28;;;21.10;70.37
33496;BME280;19836;55.812;37.560;2023-05-25T04:59:12;99579.88;;;21.17;70.29
33496;BME280;19836;55.812;37.560;2023-05-25T05:01:42;99577.88;;;21.19;70.05
33496;BME280;19836;55.812;37.560;2023-05-25T05:04:16;99580.25;;;21.23;69.71
33496;BME280;19836;55.812;37.560;2023-05-25T05:06:47;99576.09;;;21.30;69.39
33496;BME280;19836;55.812;37.560;2023-05-25T05:09:22;99575.09;;;21.31;69.01
33496;BME280;19836;55.812;37.560;2023-05-25T05:11:54;99568.44;;;21.35;68.92
33496;BME280;19836;55.812;37.560;2023-05-25T05:14:29;99570.69;;;21.41;68.89
33496;BME280;19836;55.812;37.560;2023-05-25T05:17:04;99569.47;;;21.45;68.49
33496;BME280;19836;55.812;37.560;2023-05-25T05:19:30;99572.19;;;21.45;68.01
33496;BME280;19836;55.812;37.560;2023-05-25T05:22:04;99572.22;;;21.56;68.02
33496;BME280;19836;55.812;37.560;2023-05-25T05:24:30;99575.19;;;21.53;67.68
33496;BME280;19836;55.812;37.560;2023-05-25T05:27:00;99570.09;;;21.49;67.39
33496;BME280;19836;55.812;37.560;2023-05-25T05:29:31;99576.88;;;21.43;67.25
33496;BME280;19836;55.812;37.560;2023-05-25T05:32:02;99567.84;;;21.43;67.62
33496;BME280;19836;55.812;37.560;2023-05-25T05:34:35;99572.44;;;21.53;67.73
33496;BME280;19836;55.812;37.560;2023-05-25T05:37:06;99572.81;;;21.49;67.37
33496;BME280;19836;55.812;37.560;2023-05-25T05:39:36;99566.47;;;21.48;67.56
33496;BME280;19836;55.812;37.560;2023-05-25T05:42:06;99572.34;;;21.55;67.61
33496;BME280;19836;55.812;37.560;2023-05-25T05:44:35;99573.97;;;21.57;67.55
33496;BME280;19836;55.812;37.560;2023-05-25T05:47:04;99568.28;;;21.60;67.24
33496;BME280;19836;55.812;37.560;2023-05-25T05:49:31;99571.94;;;21.72;67.34
33496;BME280;19836;55.812;37.560;2023-05-25T05:52:03;99567.25;;;21.85;66.86
33496;BME280;19836;55.812;37.560;2023-05-25T05:54:37;99574.22;;;22.00;66.51
33496;BME280;19836;55.812;37.560;2023-05-25T05:57:11;99568.78;;;22.11;65.93
33496;BME280;19836;55.812;37.560;2023-05-25T05:59:37;99569.06;;;22.19;65.55
33496;BME280;19836;55.812;37.560;2023-05-25T06:02:06;99565.69;;;22.26;65.31
33496;BME280;19836;55.812;37.560;2023-05-25T06:04:33;99568.44;;;22.26;65.18
33496;BME280;19836;55.812;37.560;2023-05-25T06:07:08;99571.16;;;22.26;65.02
33496;BME280;19836;55.812;37.560;2023-05-25T06:09:39;99574.50;;;22.30;65.09
33496;BME280;19836;55.812;37.560;2023-05-25T06:12:11;99562.25;;;22.24;65.46
33496;BME280;19836;55.812;37.560;2023-05-25T06:14:38;99562.25;;;22.24;65.38
33496;BME280;19836;55.812;37.560;2023-05-25T06:17:10;99564.69;;;22.27;65.35
33496;BME280;19836;55.812;37.560;2023-05-25T06:19:37;99569.16;;;22.28;65.37
33496;BME280;19836;55.812;37.560;2023-05-25T06:22:05;99564.97;;;22.24;65.31
33496;BME280;19836;55.812;37.560;2023-05-25T06:24:40;99574.78;;;22.27;65.26
33496;BME280;19836;55.812;37.560;2023-05-25T06:27:07;99570.16;;;22.27;65.36
33496;BME280;19836;55.812;37.560;2023-05-25T06:29:39;99567.94;;;22.32;65.40
33496;BME280;19836;55.812;37.560;2023-05-25T06:32:11;99561.25;;;22.36;65.05
33496;BME280;19836;55.812;37.560;2023-05-25T06:34:45;99569.19;;;22.39;64.84
33496;BME280;19836;55.812;37.560;2023-05-25T06:37:21;99567.31;;;22.40;64.40
33496;BME280;19836;55.812;37.560;2023-05-25T06:39:47;99565.59;;;22.39;64.44
33496;BME280;19836;55.812;37.560;2023-05-25T06:42:14;99568.69;;;22.34;64.52
33496;BME280;19836;55.812;37.560;2023-05-25T06:44:50;99565.19;;;22.32;64.56
33496;BME280;19836;55.812;37.560;2023-05-25T06:47:19;99566.59;;;22.27;64.75
33496;BME280;19836;55.812;37.560;2023-05-25T06:49:48;99559.75;;;22.21;64.86
33496;BME280;19836;55.812;37.560;2023-05-25T06:52:26;99566.31;;;22.19;65.19
33496;BME280;19836;55.812;37.560;2023-05-25T06:55:01;99564.47;;;22.19;65.18
33496;BME280;19836;55.812;37.560;2023-05-25T06:57:29;99565.44;;;22.18;65.33
33496;BME280;19836;55.812;37.560;2023-05-25T07:00:00;99567.44;;;22.16;65.30
33496;BME280;19836;55.812;37.560;2023-05-25T07:02:26;99562.47;;;22.21;65.50
33496;BME280;19836;55.812;37.560;2023-05-25T07:04:52;99557.00;;;22.32;65.28
33496;BME280;19836;55.812;37.560;2023-05-25T07:07:19;99568.72;;;22.45;64.95
33496;BME280;19836;55.812;37.560;2023-05-25T07:09:46;99562.75;;;22.51;64.54
33496;BME280;19836;55.812;37.560;2023-05-25T07:12:15;99570.47;;;22.46;64.27
33496;BME280;19836;55.812;37.560;2023-05-25T07:14:43;99569.31;;;22.38;64.48
33496;BME280;19836;55.812;37.560;2023-05-25T07:17:13;99569.53;;;22.35;65.05
33496;BME280;19836;55.812;37.560;2023-05-25T07:19:40;99572.66;;;22.30;64.99
33496;BME280;19836;55.812;37.560;2023-05-25T07:22:09;99573.63;;;22.18;65.17
33496;BME280;19836;55.812;37.560;2023-05-25T07:24:42;99574.88;;;22.14;65.31
33496;BME280;19836;55.812;37.560;2023-05-25T07:27:11;99575.13;;;22.11;65.50
33496;BME280;19836;55.812;37.560;2023-05-25T07:29:44;99587.66;;;22.03;66.04
33496;BME280;19836;55.812;37.560;2023-05-25T07:32:11;99573.31;;;21.88;66.45
33496;BME280;19836;55.812;37.560;2023-05-25T07:34:37;99576.53;;;21.71;66.97
33496;BME280;19836;55.812;37.560;2023-05-25T07:37:06;99576.69;;;21.57;67.74
33496;BME280;19836;55.812;37.560;2023-05-25T07:39:38;99577.78;;;21.55;68.17
33496;BME280;19836;55.812;37.560;2023-05-25T07:42:10;99574.59;;;21.61;68.27
33496;BME280;19836;55.812;37.560;2023-05-25T07:44:40;99576.84;;;21.67;68.19
33496;BME280;19836;55.812;37.560;2023-05-25T07:47:09;99568.34;;;21.71;68.44
33496;BME280;19836;55.812;37.560;2023-05-25T07:49:38;99567.34;;;21.72;68.37
33496;BME280;19836;55.812;37.560;2023-05-25T07:52:07;99571.06;;;21.71;68.44
33496;BME280;19836;55.812;37.560;2023-05-25T07:54:33;99564.91;;;21.80;67.98
33496;BME280;19836;55.812;37.560;2023-05-25T07:57:13;99574.34;;;21.98;67.83
33496;BME280;19836;55.812;37.560;2023-05-25T07:59:46;99565.44;;;22.07;67.31
33496;BME280;19836;55.812;37.560;2023-05-25T08:02:20;99563.19;;;22.01;67.06
33496;BME280;19836;55.812;37.560;2023-05-25T08:04:48;99563.44;;;21.98;67.50
33496;BME280;19836;55.812;37.560;2023-05-25T08:07:17;99569.53;;;22.02;67.45
33496;BME280;19836;55.812;37.560;2023-05-25T08:09:45;99562.69;;;22.07;67.11
33496;BME280;19836;55.812;37.560;2023-05-25T08:12:12;99562.34;;;22.12;66.84
33496;BME280;19836;55.812;37.560;2023-05-25T08:14:38;99559.34;;;22.15;66.77
33496;BME280;19836;55.812;37.560;2023-05-25T08:17:10;99555.41;;;22.19;66.69
33496;BME280;19836;55.812;37.560;2023-05-25T08:19:37;99561.25;;;22.14;66.85
33496;BME280;19836;55.812;37.560;2023-05-25T08:22:09;99558.25;;;22.17;66.69
33496;BME280;19836;55.812;37.560;2023-05-25T08:24:38;99565.44;;;22.18;66.51
33496;BME280;19836;55.812;37.560;2023-05-25T08:27:07;99561.72;;;22.08;66.48
33496;BME280;19836;55.812;37.560;2023-05-25T08:29:49;99571.50;;;22.00;66.87
33496;BME280;19836;55.812;37.560;2023-05-25T08:32:16;99573.84;;;21.93;67.19
33496;BME280;19836;55.812;37.560;2023-05-25T08:34:45;99562.91;;;21.93;67.07
33496;BME280;19836;55.812;37.560;2023-05-25T08:37:18;99562.47;;;21.99;66.69
33496;BME280;19836;55.812;37.560;2023-05-25T08:39:52;99567.94;;;22.10;66.46
33496;BME280;19836;55.812;37.560;2023-05-25T08:42:25;99565.69;;;22.15;66.19
33496;BME280;19836;55.812;37.560;2023-05-25T08:46:15;99563.97;;;22.14;65.78
33496;BME280;19836;55.812;37.560;2023-05-25T08:49:43;99563.59;;;22.08;65.55
33496;BME280;19836;55.812;37.560;2023-05-25T08:52:24;99564.69;;;22.05;65.78
33496;BME280;19836;55.812;37.560;2023-05-25T09:01:38;99565.19;;;21.65;66.71
33496;BME280;19836;55.812;37.560;2023-05-25T09:04:46;99559.22;;;21.60;67.04
33496;BME280;19836;55.812;37.560;2023-05-25T09:07:46;99554.53;;;21.62;67.54
33496;BME280;19836;55.812;37.560;2023-05-25T09:10:14;99568.28;;;21.60;67.71
33496;BME280;19836;55.812;37.560;2023-05-25T09:12:45;99561.09;;;21.59;68.11
33496;BME280;19836;55.812;37.560;2023-05-25T09:15:16;99557.84;;;21.54;68.23
33496;BME280;19836;55.812;37.560;2023-05-25T09:17:47;99563.25;;;21.43;69.18
33496;BME280;19836;55.812;37.560;2023-05-25T09:20:15;99564.72;;;21.36;70.18
33496;BME280;19836;55.812;37.560;2023-05-25T09:22:49;99563.09;;;21.34;71.04
33496;BME280;19836;55.812;37.560;2023-05-25T09:25:21;99569.28;;;21.36;71.17
33496;BME280;19836;55.812;37.560;2023-05-25T09:27:55;99558.63;;;21.33;71.75
33496;BME280;19836;55.812;37.560;2023-05-25T09:30:30;99557.75;;;21.32;72.31
33496;BME280;19836;55.812;37.560;2023-05-25T09:35:44;99565.00;;;21.21;73.12
33496;BME280;19836;55.812;37.560;2023-05-25T09:38:24;99565.72;;;21.12;73.75
33496;BME280;19836;55.812;37.560;2023-05-25T09:41:04;99559.88;;;21.05;74.16
33496;BME280;19836;55.812;37.560;2023-05-25T09:43:46;99571.22;;;20.99;74.86
33496;BME280;19836;55.812;37.560;2023-05-25T09:46:14;99566.75;;;20.98;75.38
33496;BME280;19836;55.812;37.560;2023-05-25T09:48:47;99561.19;;;21.00;75.40
33496;BME280;19836;55.812;37.560;2023-05-25T09:51:16;99577.53;;;21.00;75.84
33496;BME280;19836;55.812;37.560;2023-05-25T09:53:51;99569.06;;;20.92;76.13
33496;BME280;19836;55.812;37.560;2023-05-25T09:56:17;99564.03;;;20.86;76.54
33496;BME280;19836;55.812;37.560;2023-05-25T09:58:47;99566.00;;;20.84;76.62
33496;BME280;19836;55.812;37.560;2023-05-25T10:01:33;99558.06;;;20.81;77.34
33496;BME280;19836;55.812;37.560;2023-05-25T10:04:00;99571.28;;;20.74;77.67
33496;BME280;19836;55.812;37.560;2023-05-25T10:06:50;99557.72;;;20.62;78.27
33496;BME280;19836;55.812;37.560;2023-05-25T10:12:20;99556.09;;;20.47;80.30
33496;BME280;19836;55.812;37.560;2023-05-25T10:14:49;99553.50;;;20.45;80.76
33496;BME280;19836;55.812;37.560;2023-05-25T10:17:21;99557.19;;;20.44;81.54
33496;BME280;19836;55.812;37.560;2023-05-25T10:20:18;99559.03;;;20.44;81.97
33496;BME280;19836;55.812;37.560;2023-05-25T10:23:16;99553.69;;;20.42;82.53
33496;BME280;19836;55.812;37.560;2023-05-25T10:25:58;99560.03;;;20.43;83.36
33496;BME280;19836;55.812;37.560;2023-05-25T10:28:55;99563.94;;;20.51;84.22
33496;BME280;19836;55.812;37.560;2023-05-25T10:31:48;99553.56;;;20.56;84.11
33496;BME280;19836;55.812;37.560;2023-05-25T10:34:58;99554.09;;;20.61;84.38
33496;BME280;19836;55.812;37.560;2023-05-25T10:37:47;99550.19;;;20.65;84.57
33496;BME280;19836;55.812;37.560;2023-05-25T10:40:22;99551.03;;;20.66;84.76
33496;BME280;19836;55.812;37.560;2023-05-25T10:42:51;99551.91;;;20.66;84.49
33496;BME280;19836;55.812;37.560;2023-05-25T10:48:38;99541.19;;;20.76;85.26
33496;BME280;19836;55.812;37.560;2023-05-25T10:51:15;99549.56;;;20.85;85.41
33496;BME280;19836;55.812;37.560;2023-05-25T10:54:00;99547.47;;;20.89;85.48
33496;BME280;19836;55.812;37.560;2023-05-25T10:56:32;99551.50;;;20.96;85.51
33496;BME280;19836;55.812;37.560;2023-05-25T10:59:04;99545.47;;;21.03;85.00
33496;BME280;19836;55.812;37.560;2023-05-25T11:01:49;99544.56;;;21.15;84.74
33496;BME280;19836;55.812;37.560;2023-05-25T11:04:16;99538.78;;;21.31;84.42
33496;BME280;19836;55.812;37.560;2023-05-25T11:09:23;99540.38;;;21.57;83.22
33496;BME280;19836;55.812;37.560;2023-05-25T11:14:31;99535.16;;;21.54;82.23
33496;BME280;19836;55.812;37.560;2023-05-25T11:19:48;99533.44;;;21.64;80.27
33496;BME280;19836;55.812;37.560;2023-05-25T11:22:33;99531.91;;;21.83;79.29
33496;BME280;19836;55.812;37.560;2023-05-25T11:25:41;99532.91;;;21.93;77.69
33496;BME280;19836;55.812;37.560;2023-05-25T11:28:14;99527.22;;;21.96;76.86
33496;BME280;19836;55.812;37.560;2023-05-25T11:30:44;99522.50;;;21.98;76.44
33496;BME280;19836;55.812;37.560;2023-05-25T11:33:21;99522.00;;;21.93;75.85
33496;BME280;19836;55.812;37.560;2023-05-25T11:36:32;99516.53;;;21.82;76.04
33496;BME280;19836;55.812;37.560;2023-05-25T11:43:13;99510.72;;;21.52;76.80
33496;BME280;19836;55.812;37.560;2023-05-25T11:46:16;99503.16;;;21.45;76.96
33496;BME280;19836;55.812;37.560;2023-05-25T11:49:13;99506.25;;;21.40;77.00
33496;BME280;19836;55.812;37.560;2023-05-25T11:51:47;99504.59;;;21.27;77.26
33496;BME280;19836;55.812;37.560;2023-05-25T11:55:00;99506.41;;;21.15;77.39
33496;BME280;19836;55.812;37.560;2023-05-25T11:57:56;99514.75;;;21.01;77.35
33496;BME280;19836;55.812;37.560;2023-05-25T12:00:26;99506.59;;;21.01;77.31
33496;BME280;19836;55.812;37.560;2023-05-25T12:03:01;99507.50;;;21.13;77.20
33496;BME280;19836;55.812;37.560;2023-05-25T12:05:41;99504.78;;;21.13;77.15
33496;BME280;19836;55.812;37.560;2023-05-25T12:08:10;99508.34;;;21.13;77.07
33496;BME280;19836;55.812;37.560;2023-05-25T12:14:23;99501.31;;;21.45;76.03
33496;BME280;19836;55.812;37.560;2023-05-25T12:21:01;99495.97;;;21.55;75.36
33496;BME280;19836;55.812;37.560;2023-05-25T12:23:42;99498.38;;;21.59;75.05
33496;BME280;19836;55.812;37.560;2023-05-25T12:26:16;99493.97;;;21.46;74.82
33496;BME280;19836;55.812;37.560;2023-05-25T12:29:07;99485.03;;;21.33;74.87
33496;BME280;19836;55.812;37.560;2023-05-25T12:31:42;99500.25;;;21.24;74.68
33496;BME280;19836;55.812;37.560;2023-05-25T12:34:17;99484.13;;;21.21;74.47
33496;BME280;19836;55.812;37.560;2023-05-25T12:36:51;99489.78;;;21.18;74.70
33496;BME280;19836;55.812;37.560;2023-05-25T14:26:19;99468.91;;;21.75;68.27
33496;BME280;19836;55.812;37.560;2023-05-25T14:28:54;99465.19;;;21.98;67.47
33496;BME280;19836;55.812;37.560;2023-05-25T14:32:12;99449.69;;;22.10;66.69
33496;BME280;19836;55.812;37.560;2023-05-25T14:35:09;99448.81;;;21.98;67.17
33496;BME280;19836;55.812;37.560;2023-05-25T14:37:55;99442.13;;;21.80;67.28
33496;BME280;19836;55.812;37.560;2023-05-25T14:41:30;99443.59;;;21.73;67.29
33496;BME280;19836;55.812;37.560;2023-05-25T14:54:12;99424.19;;;23.16;61.79
33496;BME280;19836;55.812;37.560;2023-05-25T14:58:14;99436.09;;;22.63;62.62
33496;BME280;19836;55.812;37.560;2023-05-25T15:08:32;99431.72;;;21.85;64.68
33496;BME280;19836;55.812;37.560;2023-05-25T15:14:41;99438.41;;;21.70;65.42
33496;BME280;19836;55.812;37.560;2023-05-25T15:18:11;99442.34;;;21.66;65.68
33496;BME280;19836;55.812;37.560;2023-05-25T15:21:46;99449.28;;;21.59;66.38
33496;BME280;19836;55.812;37.560;2023-05-25T15:25:29;99446.78;;;21.56;66.30
33496;BME280;19836;55.812;37.560;2023-05-25T15:32:30;99448.13;;;21.51;66.63
33496;BME280;19836;55.812;37.560;2023-05-25T15:35:49;99445.16;;;21.43;66.50
33496;BME280;19836;55.812;37.560;2023-05-25T15:39:18;99440.94;;;21.39;66.84
33496;BME280;19836;55.812;37.560;2023-05-25T15:42:14;99451.09;;;21.37;67.05
33496;BME280;19836;55.812;37.560;2023-05-25T15:45:22;99449.00;;;21.40;66.96
33496;BME280;19836;55.812;37.560;2023-05-25T15:48:54;99437.88;;;21.54;66.94
33496;BME280;19836;55.812;37.560;2023-05-25T15:51:25;99441.25;;;21.69;66.99
33496;BME280;19836;55.812;37.560;2023-05-25T15:57:19;99434.69;;;22.15;65.70
33496;BME280;19836;55.812;37.560;2023-05-25T16:07:12;99434.28;;;22.20;64.82
33496;BME280;19836;55.812;37.560;2023-05-25T16:10:10;99428.13;;;22.07;65.19
33496;BME280;19836;55.812;37.560;2023-05-25T16:12:36;99424.66;;;21.94;65.65
33496;BME280;19836;55.812;37.560;2023-05-25T16:15:01;99424.53;;;21.84;66.35
33496;BME280;19836;55.812;37.560;2023-05-25T16:17:31;99427.00;;;21.76;66.75
33496;BME280;19836;55.812;37.560;2023-05-25T16:19:57;99423.91;;;21.70;66.50
33496;BME280;19836;55.812;37.560;2023-05-25T16:22:23;99413.84;;;21.59;66.38
33496;BME280;19836;55.812;37.560;2023-05-25T16:24:49;99414.94;;;21.57;66.47
33496;BME280;19836;55.812;37.560;2023-05-25T16:27:18;99412.56;;;21.52;66.84
33496;BME280;19836;55.812;37.560;2023-05-25T16:29:44;99413.78;;;21.48;67.06
33496;BME280;19836;55.812;37.560;2023-05-25T16:32:10;99408.09;;;21.40;67.40
33496;BME280;19836;55.812;37.560;2023-05-25T16:34:36;99412.94;;;21.37;67.79
33496;BME280;19836;55.812;37.560;2023-05-25T16:37:02;99408.31;;;21.37;67.72
33496;BME280;19836;55.812;37.560;2023-05-25T16:39:28;99408.94;;;21.41;68.21
33496;BME280;19836;55.812;37.560;2023-05-25T16:41:54;99406.38;;;21.39;68.02
33496;BME280;19836;55.812;37.560;2023-05-25T16:44:21;99409.44;;;21.35;68.10
33496;BME280;19836;55.812;37.560;2023-05-25T16:46:48;99408.09;;;21.29;68.43
33496;BME280;19836;55.812;37.560;2023-05-25T16:49:24;99408.81;;;21.20;69.03
33496;BME280;19836;55.812;37.560;2023-05-25T16:51:50;99409.28;;;21.14;69.49
33496;BME280;19836;55.812;37.560;2023-05-25T16:54:16;99411.00;;;21.04;69.99
33496;BME280;19836;55.812;37.560;2023-05-25T16:56:42;99411.69;;;20.95;69.99
33496;BME280;19836;55.812;37.560;2023-05-25T16:59:08;99410.63;;;20.85;70.51
33496;BME280;19836;55.812;37.560;2023-05-25T17:01:59;99403.16;;;20.76;71.37
33496;BME280;19836;55.812;37.560;2023-05-25T17:04:25;99408.81;;;20.62;71.47
33496;BME280;19836;55.812;37.560;2023-05-25T17:06:52;99407.88;;;20.51;72.08
33496;BME280;19836;55.812;37.560;2023-05-25T17:09:17;99411.53;;;20.39;72.38
33496;BME280;19836;55.812;37.560;2023-05-25T17:11:43;99415.06;;;20.28;73.01
33496;BME280;19836;55.812;37.560;2023-05-25T17:14:09;99411.06;;;20.21;73.09
33496;BME280;19836;55.812;37.560;2023-05-25T17:16:36;99410.78;;;20.13;73.60
33496;BME280;19836;55.812;37.560;2023-05-25T17:19:05;99405.09;;;20.04;73.78
33496;BME280;19836;55.812;37.560;2023-05-25T17:21:35;99394.88;;;19.95;74.41
33496;BME280;19836;55.812;37.560;2023-05-25T17:24:01;99405.38;;;19.88;74.53
33496;BME280;19836;55.812;37.560;2023-05-25T17:26:31;99404.94;;;19.82;75.00
33496;BME280;19836;55.812;37.560;2023-05-25T17:28:58;99400.81;;;19.76;75.04
33496;BME280;19836;55.812;37.560;2023-05-25T17:31:25;99409.50;;;19.69;75.55
33496;BME280;19836;55.812;37.560;2023-05-25T17:33:53;99405.63;;;19.60;75.70
33496;BME280;19836;55.812;37.560;2023-05-25T17:36:19;99411.59;;;19.53;75.79
33496;BME280;19836;55.812;37.560;2023-05-25T17:38:47;99416.59;;;19.46;76.11
33496;BME280;19836;55.812;37.560;2023-05-25T17:41:13;99410.84;;;19.38;76.54
33496;BME280;19836;55.812;37.560;2023-05-25T17:43:39;99419.31;;;19.34;76.45
33496;BME280;19836;55.812;37.560;2023-05-25T17:46:05;99418.78;;;19.29;76.70
33496;BME280;19836;55.812;37.560;2023-05-25T17:48:32;99414.53;;;19.25;77.17
33496;BME280;19836;55.812;37.560;2023-05-25T17:51:21;99423.97;;;19.19;77.44
33496;BME280;19836;55.812;37.560;2023-05-25T17:53:48;99419.91;;;19.12;77.75
33496;BME280;19836;55.812;37.560;2023-05-25T17:56:20;99427.31;;;19.10;77.91
33496;BME280;19836;55.812;37.560;2023-05-25T17:58:58;99420.47;;;19.17;78.12
33496;BME280;19836;55.812;37.560;2023-05-25T18:01:33;99427.50;;;19.07;77.64
33496;BME280;19836;55.812;37.560;2023-05-25T18:04:02;99420.56;;;19.03;77.86
33496;BME280;19836;55.812;37.560;2023-05-25T18:06:32;99427.28;;;18.98;78.09
33496;BME280;19836;55.812;37.560;2023-05-25T18:09:10;99418.78;;;18.90;78.25
33496;BME280;19836;55.812;37.560;2023-05-25T18:32:35;99418.88;;;18.37;80.73
33496;BME280;19836;55.812;37.560;2023-05-25T18:36:07;99422.75;;;18.33;80.86
33496;BME280;19836;55.812;37.560;2023-05-25T18:38:35;99424.78;;;18.29;81.23
33496;BME280;19836;55.812;37.560;2023-05-25T18:48:33;99416.97;;;18.11;81.21
33496;BME280;19836;55.812;37.560;2023-05-25T18:51:07;99415.53;;;18.05;81.86
33496;BME280;19836;55.812;37.560;2023-05-25T18:53:39;99416.69;;;18.01;81.96
33496;BME280;19836;55.812;37.560;2023-05-25T18:56:09;99404.09;;;18.00;82.24
33496;BME280;19836;55.812;37.560;2023-05-25T18:59:00;99406.06;;;17.98;82.66
33496;BME280;19836;55.812;37.560;2023-05-25T19:01:34;99413.63;;;17.93;82.56
33496;BME280;19836;55.812;37.560;2023-05-25T19:04:24;99420.78;;;17.94;82.57
33496;BME280;19836;55.812;37.560;2023-05-25T19:06:56;99414.78;;;17.89;83.07
33496;BME280;19836;55.812;37.560;2023-05-25T19:34:48;99441.91;;;17.61;82.63
33496;BME280;19836;55.812;37.560;2023-05-25T20:14:10;99432.28;;;17.28;84.84
33496;BME280;19836;55.812;37.560;2023-05-25T20:16:45;99440.03;;;17.20;84.86
33496;BME280;19836;55.812;37.560;2023-05-25T20:19:54;99433.91;;;17.16;85.25
33496;BME280;19836;55.812;37.560;2023-05-25T20:22:35;99431.59;;;17.10;85.36
33496;BME280;19836;55.812;37.560;2023-05-25T20:25:46;99432.84;;;17.05;85.44
33496;BME280;19836;55.812;37.560;2023-05-25T20:29:19;99433.91;;;17.02;85.51
33496;BME280;19836;55.812;37.560;2023-05-25T20:36:25;99430.41;;;17.00;85.73
33496;BME280;19836;55.812;37.560;2023-05-25T20:40:05;99426.13;;;16.96;85.84
33496;BME280;19836;55.812;37.560;2023-05-25T20:42:40;99432.72;;;16.92;85.79
33496;BME280;19836;55.812;37.560;2023-05-25T20:45:27;99426.72;;;16.87;86.04
33496;BME280;19836;55.812;37.560;2023-05-25T20:48:24;99420.50;;;16.85;86.34
33496;BME280;19836;55.812;37.560;2023-05-25T20:52:22;99429.59;;;16.84;86.37
33496;BME280;19836;55.812;37.560;2023-05-25T20:56:26;99432.69;;;16.78;86.03
33496;BME280;19836;55.812;37.560;2023-05-25T21:02:49;99420.66;;;16.68;86.19
33496;BME280;19836;55.812;37.560;2023-05-25T21:05:21;99418.34;;;16.62;86.37
33496;BME280;19836;55.812;37.560;2023-05-25T21:08:40;99416.69;;;16.60;86.49
33496;BME280;19836;55.812;37.560;2023-05-25T21:11:21;99417.72;;;16.57;86.76
33496;BME280;19836;55.812;37.560;2023-05-25T21:13:56;99414.22;;;16.55;86.95
33496;BME280;19836;55.812;37.560;2023-05-25T21:16:42;99416.25;;;16.52;87.28
33496;BME280;19836;55.812;37.560;2023-05-25T21:19:36;99413.63;;;16.50;87.43
33496;BME280;19836;55.812;37.560;2023-05-25T21:22:34;99406.56;;;16.48;87.62
33496;BME280;19836;55.812;37.560;2023-05-25T21:25:12;99410.31;;;16.45;87.53
33496;BME280;19836;55.812;37.560;2023-05-25T21:27:43;99410.53;;;16.42;87.43
33496;BME280;19836;55.812;37.560;2023-05-25T21:30:13;99410.69;;;16.39;87.55
33496;BME280;19836;55.812;37.560;2023-05-25T21:32:46;99412.59;;;16.37;87.94
33496;BME280;19836;55.812;37.560;2023-05-25T21:35:12;99409.97;;;16.36;87.77
33496;BME280;19836;55.812;37.560;2023-05-25T21:37:46;99395.78;;;16.32;87.78
33496;BME280;19836;55.812;37.560;2023-05-25T21:40:20;99403.00;;;16.32;88.04
33496;BME280;19836;55.812;37.560;2023-05-25T21:42:59;99400.38;;;16.30;88.22
33496;BME280;19836;55.812;37.560;2023-05-25T21:45:29;99403.16;;;16.29;88.88
33496;BME280;19836;55.812;37.560;2023-05-25T21:48:11;99396.81;;;16.30;89.17
33496;BME280;19836;55.812;37.560;2023-05-25T21:50:44;99391.50;;;16.28;89.21
33496;BME280;19836;55.812;37.560;2023-05-25T21:53:25;99400.28;;;16.32;89.26
33496;BME280;19836;55.812;37.560;2023-05-25T21:56:54;99401.94;;;16.34;89.17
33496;BME280;19836;55.812;37.560;2023-05-25T22:00:36;99383.91;;;16.35;89.07
33496;BME280;19836;55.812;37.560;2023-05-25T22:03:38;99395.66;;;16.34;89.24
33496;BME280;19836;55.812;37.560;2023-05-25T22:19:09;99388.72;;;16.30;88.34
33496;BME280;19836;55.812;37.560;2023-05-25T22:22:30;99386.25;;;16.25;88.78
33496;BME280;19836;55.812;37.560;2023-05-25T22:25:23;99383.75;;;16.22;88.51
33496;BME280;19836;55.812;37.560;2023-05-25T22:27:56;99392.91;;;16.20;89.31
33496;BME280;19836;55.812;37.560;2023-05-25T22:30:52;99392.09;;;16.18;89.25
33496;BME280;19836;55.812;37.560;2023-05-25T22:37:56;99388.72;;;16.14;89.04
33496;BME280;19836;55.812;37.560;2023-05-25T22:40:49;99374.44;;;16.12;89.81
33496;BME280;19836;55.812;37.560;2023-05-25T22:43:55;99376.34;;;16.10;89.89
33496;BME280;19836;55.812;37.560;2023-05-25T22:46:31;99380.97;;;16.08;89.56
33496;BME280;19836;55.812;37.560;2023-05-25T22:49:41;99373.84;;;16.07;89.79
33496;BME280;19836;55.812;37.560;2023-05-25T22:52:57;99371.13;;;16.07;90.22
33496;BME280;19836;55.812;37.560;2023-05-25T23:08:33;99361.16;;;16.08;90.29
33496;BME280;19836;55.812;37.560;2023-05-25T23:17:22;99358.91;;;16.00;90.41
33496;BME280;19836;55.812;37.560;2023-05-25T23:19:53;99353.72;;;15.97;90.76
33496;BME280;19836;55.812;37.560;2023-05-25T23:22:20;99365.44;;;15.96;90.40
33496;BME280;19836;55.812;37.560;2023-05-25T23:24:48;99363.72;;;15.95;91.35
33496;BME280;19836;55.812;37.560;2023-05-25T23:27:17;99362.94;;;15.93;91.03
33496;BME280;19836;55.812;37.560;2023-05-25T23:29:44;99365.72;;;15.92;91.42
33496;BME280;19836;55.812;37.560;2023-05-25T23:32:10;99374.81;;;15.91;91.70
33496;BME280;19836;55.812;37.560;2023-05-25T23:34:39;99378.47;;;15.90;91.72